Time;durP1;ratioP1;P1;durP2;ratioP2;P2;SDS_P1;SDS_P2;PMS_P1;PMS_P2;Temp;Humidity;BMP_temperature;BMP_pressure;BME280_temperature;BME280_humidity;BME280_pressure;Samples;Min_cycle;Max_cycle;Signal;HPM_P1;HPM_P2
2022/05/17 00:00:03;;;;;;;;;;;;;;;;;;349900;28;995;-72
2022/05/17 00:00:13;;;;;;;;;;;;;;;;;;349977;28;856;-72
2022/05/17 00:00:23;;;;;;;;;;;;;;;;;;349887;28;1378;-72
2022/05/17 00:00:34;;;;;;;;;;;;;;;;;;349904;28;794;-72
2022/05/17 00:00:44;;;;;;;;;;;;;;;;;;349967;28;1019;-72
2022/05/17 00:00:54;;;;;;;;;;;;;;;;;;349973;28;928;-72
2022/05/17 00:01:04;;;;;;;;;;;;;;;;;;349936;28;932;-72
2022/05/17 00:01:15;;;;;;;;;;;;;;;;;;349868;28;965;-72
2022/05/17 00:01:25;;;;;;;;;;;;;;;;;;349941;28;881;-72
2022/05/17 00:01:35;;;;;;;;;;;;;;;;;;349966;28;941;-72
2022/05/17 00:01:45;;;;;;;;;;;;;;;;;;349889;28;866;-72
2022/05/17 00:01:55;;;;;;;;;;;;;;;;;;349902;28;920;-72
2022/05/17 00:02:06;;;;;;;;;;;;;;;;;;349974;28;936;-72
2022/05/17 00:02:16;;;;;;;;;;;;;;;;;;349978;28;884;-72
2022/05/17 00:02:26;;;;;;;;;;;;;;;;;;349885;28;976;-72
2022/05/17 00:02:36;;;;;;;;;;;;;;;;;;349933;28;976;-72
2022/05/17 00:02:46;;;;;;;;;;;;;;;;;;349943;28;905;-72
2022/05/17 00:02:57;;;;;;;;;;;;;;;;;;349957;28;941;-72
2022/05/17 00:03:07;;;;;;;;;;;;;;;;;;349993;28;886;-72
2022/05/17 00:03:18;;;;;;;;;;;;;;;;;;349914;28;931;-73
2022/05/17 00:03:28;;;;;;;;;;;;;;;;;;349944;28;983;-72
2022/05/17 00:03:38;;;;;;;;;;;;;;;;;;349955;28;837;-72
2022/05/17 00:03:49;;;;;;;;;;;;;;;;;;349941;28;901;-72
2022/05/17 00:03:59;;;;;;;;;;;;;;;;;;349911;28;878;-72
2022/05/17 00:04:09;;;;;;;;;;;;;;;;;;349967;28;924;-72
2022/05/17 00:04:20;;;;;;;;;;;;;;;;;;349935;28;1063;-72
2022/05/17 00:04:31;;;;;;;;;;;;;;;;;;349969;28;794;-72
2022/05/17 00:04:41;;;;;;;;;;;;;;;;;;349944;28;931;-72
2022/05/17 00:04:51;;;;;;;;;;;;;;;;;;349975;28;881;-72
2022/05/17 00:05:02;;;;;;;;;;;;;;;;;;349282;28;1739;-72
2022/05/17 00:05:13;;;;;;;;;;;;;;;;;;348983;28;1514;-72
2022/05/17 00:05:23;;;;;;;;;;;;;;;;;;349838;28;1031;-72
2022/05/17 00:05:34;;;;;;;;;;;;;;;;;;349914;28;1015;-71
2022/05/17 00:05:44;;;;;;;;;;;;;;;;;;349932;28;988;-73
2022/05/17 00:05:55;;;;;;;;;;;;;;;;;;349949;28;1003;-72
2022/05/17 00:06:06;;;;;;;;;;;;;;;;;;349906;28;842;-73
2022/05/17 00:06:16;;;;;;;;;;;;;;;;;;349961;28;810;-72
2022/05/17 00:06:26;;;;;;;;;;;;;;;;;;349895;28;980;-72
2022/05/17 00:06:37;;;;;;;;;;;;;;;;;;349887;28;793;-72
2022/05/17 00:06:47;;;;;;;;;;;;;;;;;;350000;28;798;-72
2022/05/17 00:06:58;;;;;;;;;;;;;;;;;;349184;28;1772;-72
2022/05/17 00:07:08;;;;;;;;;;;;;;;;;;349734;28;817;-72
2022/05/17 00:07:18;;;;;;;;;;;;;;;;;;349966;28;925;-72
2022/05/17 00:07:28;;;;;;;;;;;;;;;;;;349769;28;1535;-72
2022/05/17 00:07:39;;;;;;;;;;;;;;;;;;349778;28;1586;-72
2022/05/17 00:07:49;;;;;;;;;;;;;;;;;;349943;28;917;-72
2022/05/17 00:07:59;;;;;;;;;;;;;;;;;;349880;28;960;-72
2022/05/17 00:08:09;;;;;;;;;;;;;;;;;;348902;28;1764;-72
2022/05/17 00:08:20;;;;;;;;;;;;;;;;;;348583;28;924;-72
2022/05/17 00:08:30;;;;;;;;;;;;;;;;;;348250;28;1709;-72
2022/05/17 00:08:41;;;;;;;;;;;;;;;;;;348499;28;988;-73
2022/05/17 00:08:51;;;;;;;;;;;;;;;;;;348558;28;921;-72
2022/05/17 00:09:01;;;;;;;;;;;;;;;;;;348564;28;996;-72
2022/05/17 00:09:11;;;;;;;;;;;;;;;;;;348503;28;945;-72
2022/05/17 00:09:21;;;;;;;;;;;;;;;;;;348582;28;909;-72
2022/05/17 00:09:32;;;;;;;;;;;;;;;;;;348568;28;905;-72
2022/05/17 00:09:42;;;;;;;;;;;;;;;;;;348502;28;908;-72
2022/05/17 00:09:53;;;;;;;;;;;;;;;;;;348591;28;778;-72
2022/05/17 00:10:03;;;;;;;;;;;;;;;;;;348555;28;826;-72
2022/05/17 00:10:14;;;;;;;;;;;;;;;;;;348454;28;905;-72
2022/05/17 00:10:25;;;;;;;;;;;;;;;;;;348409;28;1134;-72
2022/05/17 00:10:36;;;;;;;;;;;;;;;;;;348574;28;948;-72
2022/05/17 00:10:46;;;;;;;;;;;;;;;;;;348471;28;1055;-72
2022/05/17 00:10:57;;;;;;;;;;;;;;;;;;348536;28;921;-72
2022/05/17 00:11:09;;;;;;;;;;;;;;;;;;348532;28;1072;-72
2022/05/17 00:11:19;;;;;;;;;;;;;;;;;;348517;28;897;-72
2022/05/17 00:11:29;;;;;;;;;;;;;;;;;;348572;28;908;-72
2022/05/17 00:11:39;;;;;;;;;;;;;;;;;;348524;28;952;-72
2022/05/17 00:11:50;;;;;;;;;;;;;;;;;;348538;28;979;-72
2022/05/17 00:12:00;;;;;;;;;;;;;;;;;;348556;28;1098;-72
2022/05/17 00:12:11;;;;;;;;;;;;;;;;;;348547;28;884;-72
2022/05/17 00:12:21;;;;;;;;;;;;;;;;;;348502;28;921;-72
2022/05/17 00:12:32;;;;;;;;;;;;;;;;;;348586;28;848;-72
2022/05/17 00:12:43;;;;;;;;;;;;;;;;;;348575;28;976;-72
2022/05/17 00:12:54;;;;;;;;;;;;;;;;;;348573;28;917;-72
2022/05/17 00:13:04;;;;;;;;;;;;;;;;;;348503;28;1906;-72
2022/05/17 00:13:15;;;;;;;;;;;;;;;;;;348547;28;933;-72
2022/05/17 00:13:25;;;;;;;;;;;;;;;;;;348442;28;1071;-72
2022/05/17 00:13:35;;;;;;;;;;;;;;;;;;348552;28;996;-72
2022/05/17 00:13:45;;;;;;;;;;;;;;;;;;348531;28;960;-72
2022/05/17 00:13:56;;;;;;;;;;;;;;;;;;348521;28;1052;-72
2022/05/17 00:14:06;;;;;;;;;;;;;;;;;;348504;28;932;-72
2022/05/17 00:14:17;;;;;;;;;;;;;;;;;;348390;28;1155;-72
2022/05/17 00:14:28;;;;;;;;;;;;;;;;;;348500;28;885;-72
2022/05/17 00:14:38;;;;;;;;;;;;;;;;;;348523;28;937;-72
2022/05/17 00:14:49;;;;;;;;;;;;;;;;;;348536;28;913;-72
2022/05/17 00:14:59;;;;;;;;;;;;;;;;;;348574;28;846;-72
2022/05/17 00:15:09;;;;;;;;;;;;;;;;;;348586;28;838;-72
2022/05/17 00:15:20;;;;;;;;;;;;;;;;;;348497;28;866;-72
2022/05/17 00:15:30;;;;;;;;;;;;;;;;;;348543;28;932;-72
2022/05/17 00:15:45;;;;;;;;;;;;;;;;;;348550;28;909;-72
2022/05/17 00:15:55;;;;;;;;;;;;;;;;;;348549;28;1033;-72
2022/05/17 00:16:06;;;;;;;;;;;;;;;;;;348613;28;851;-72
2022/05/17 00:16:16;;;;;;;;;;;;;;;;;;348571;28;945;-72
2022/05/17 00:16:26;;;;;;;;;;;;;;;;;;348489;28;913;-72
2022/05/17 00:16:37;;;;;;;;;;;;;;;;;;348489;28;960;-73
2022/05/17 00:16:47;;;;;;;;;;;;;;;;;;348572;28;822;-72
2022/05/17 00:16:58;;;;;;;;;;;;;;;;;;348513;28;909;-72
2022/05/17 00:17:09;;;;;;;;;;;;;;;;;;348593;28;802;-72
2022/05/17 00:17:19;;;;;;;;;;;;;;;;;;348425;28;1249;-72
2022/05/17 00:17:29;;;;;;;;;;;;;;;;;;348598;28;853;-72
2022/05/17 00:17:40;;;;;;;;;;;;;;;;;;348593;28;925;-72
2022/05/17 00:17:52;;;;;;;;;;;;;;;;;;348518;28;940;-72
2022/05/17 00:18:03;;;;;;;;;;;;;;;;;;348513;28;886;-72
2022/05/17 00:18:15;;;;;;;;;;;;;;;;;;348549;28;928;-72
2022/05/17 00:18:25;;;;;;;;;;;;;;;;;;348540;28;822;-73
2022/05/17 00:18:36;;;;;;;;;;;;;;;;;;348498;28;992;-73
2022/05/17 00:18:46;;;;;;;;;;;;;;;;;;348516;28;995;-73
2022/05/17 00:18:56;;;;;;;;;;;;;;;;;;348564;28;913;-72
2022/05/17 00:19:07;;;;;;;;;;;;;;;;;;348525;28;1156;-72
2022/05/17 00:19:20;;;;;;;;;;;;;;;;;;348605;28;925;-72
2022/05/17 00:19:30;;;;;;;;;;;;;;;;;;348814;28;818;-72
2022/05/17 00:19:41;;;;;;;;;;;;;;;;;;348825;28;980;-72
2022/05/17 00:19:51;;;;;;;;;;;;;;;;;;348855;28;864;-72
2022/05/17 00:20:01;;;;;;;;;;;;;;;;;;348844;28;854;-72
2022/05/17 00:20:12;;;;;;;;;;;;;;;;;;348800;28;869;-72
2022/05/17 00:20:23;;;;;;;;;;;;;;;;;;348839;28;882;-72
2022/05/17 00:20:33;;;;;;;;;;;;;;;;;;348740;28;826;-72
2022/05/17 00:20:44;;;;;;;;;;;;;;;;;;348770;28;1182;-72
2022/05/17 00:20:54;;;;;;;;;;;;;;;;;;348724;28;888;-72
2022/05/17 00:21:04;;;;;;;;;;;;;;;;;;348857;28;948;-72
2022/05/17 00:21:14;;;;;;;;;;;;;;;;;;348799;28;1008;-72
2022/05/17 00:21:25;;;;;;;;;;;;;;;;;;348802;28;1004;-72
2022/05/17 00:21:36;;;;;;;;;;;;;;;;;;348805;28;928;-72
2022/05/17 00:21:47;;;;;;;;;;;;;;;;;;348792;28;887;-72
2022/05/17 00:21:57;;;;;;;;;;;;;;;;;;348823;28;995;-72
2022/05/17 00:22:08;;;;;;;;;;;;;;;;;;348836;28;775;-72
2022/05/17 00:22:18;;;;;;;;;;;;;;;;;;348827;28;909;-72
2022/05/17 00:22:28;;;;;;;;;;;;;;;;;;348848;28;853;-72
2022/05/17 00:22:39;;;;;;;;;;;;;;;;;;348676;28;968;-72
2022/05/17 00:22:49;;;;;;;;;;;;;;;;;;349617;28;1528;-72
2022/05/17 00:23:00;;;;;;;;;;;;;;;;;;350227;28;822;-72
2022/05/17 00:23:12;;;;;;;;;;;;;;;;;;350211;28;928;-72
2022/05/17 00:23:22;;;;;;;;;;;;;;;;;;350212;28;905;-72
2022/05/17 00:23:36;;;;;;;;;;;;;;;;;;350160;28;975;-72
2022/05/17 00:23:46;;;;;;;;;;;;;;;;;;350263;28;865;-72
2022/05/17 00:23:57;;;;;;;;;;;;;;;;;;350160;28;1019;-72
2022/05/17 00:24:07;;;;;;;;;;;;;;;;;;350218;28;967;-72
2022/05/17 00:24:18;;;;;;;;;;;;;;;;;;350146;28;976;-72
2022/05/17 00:24:29;;;;;;;;;;;;;;;;;;350181;28;901;-72
2022/05/17 00:24:39;;;;;;;;;;;;;;;;;;350204;28;888;-72
2022/05/17 00:24:49;;;;;;;;;;;;;;;;;;350240;28;759;-72
2022/05/17 00:25:00;;;;;;;;;;;;;;;;;;350174;28;1040;-72
2022/05/17 00:25:11;;;;;;;;;;;;;;;;;;350172;28;1027;-72
2022/05/17 00:25:23;;;;;;;;;;;;;;;;;;350161;28;992;-72
2022/05/17 00:25:34;;;;;;;;;;;;;;;;;;350195;28;905;-72
2022/05/17 00:25:47;;;;;;;;;;;;;;;;;;350191;28;1075;-72
2022/05/17 00:25:57;;;;;;;;;;;;;;;;;;350134;28;1023;-72
2022/05/17 00:26:08;;;;;;;;;;;;;;;;;;350210;28;920;-72
2022/05/17 00:26:18;;;;;;;;;;;;;;;;;;350173;28;929;-72
2022/05/17 00:26:28;;;;;;;;;;;;;;;;;;350213;28;1166;-72
2022/05/17 00:26:39;;;;;;;;;;;;;;;;;;350175;28;1047;-72
2022/05/17 00:26:49;;;;;;;;;;;;;;;;;;350137;28;921;-72
2022/05/17 00:26:59;;;;;;;;;;;;;;;;;;350112;28;932;-72
2022/05/17 00:27:09;;;;;;;;;;;;;;;;;;350234;28;833;-72
2022/05/17 00:27:19;;;;;;;;;;;;;;;;;;350217;28;790;-72
2022/05/17 00:27:30;;;;;;;;;;;;;;;;;;350189;28;1181;-72
2022/05/17 00:27:40;;;;;;;;;;;;;;;;;;350138;28;924;-72
2022/05/17 00:27:51;;;;;;;;;;;;;;;;;;350242;28;841;-72
2022/05/17 00:28:02;;;;;;;;;;;;;;;;;;350120;28;1079;-72
2022/05/17 00:28:13;;;;;;;;;;;;;;;;;;350236;28;766;-72
2022/05/17 00:28:26;;;;;;;;;;;;;;;;;;350172;28;929;-72
2022/05/17 00:28:37;;;;;;;;;;;;;;;;;;350170;28;1090;-72
2022/05/17 00:28:47;;;;;;;;;;;;;;;;;;350197;28;872;-72
2022/05/17 00:28:57;;;;;;;;;;;;;;;;;;350171;28;925;-72
2022/05/17 00:29:08;;;;;;;;;;;;;;;;;;350174;28;800;-72
2022/05/17 00:29:18;;;;;;;;;;;;;;;;;;350193;28;905;-72
2022/05/17 00:29:29;;;;;;;;;;;;;;;;;;350220;28;925;-72
2022/05/17 00:29:39;;;;;;;;;;;;;;;;;;349288;28;1806;-72
2022/05/17 00:29:50;;;;;;;;;;;;;;;;;;349088;28;1332;-72
2022/05/17 00:30:01;;;;;;;;;;;;;;;;;;348811;28;973;-72
2022/05/17 00:30:11;;;;;;;;;;;;;;;;;;348856;28;814;-72
2022/05/17 00:30:22;;;;;;;;;;;;;;;;;;348834;28;999;-72
2022/05/17 00:30:32;;;;;;;;;;;;;;;;;;348790;28;846;-72
2022/05/17 00:30:42;;;;;;;;;;;;;;;;;;348770;28;1028;-72
2022/05/17 00:30:53;;;;;;;;;;;;;;;;;;348800;28;920;-72
2022/05/17 00:31:03;;;;;;;;;;;;;;;;;;348715;28;912;-72
2022/05/17 00:31:13;;;;;;;;;;;;;;;;;;348840;28;893;-72
2022/05/17 00:31:24;;;;;;;;;;;;;;;;;;348759;28;921;-72
2022/05/17 00:31:34;;;;;;;;;;;;;;;;;;348808;28;968;-72
2022/05/17 00:31:44;;;;;;;;;;;;;;;;;;348853;28;884;-72
2022/05/17 00:31:54;;;;;;;;;;;;;;;;;;348820;28;908;-72
2022/05/17 00:32:05;;;;;;;;;;;;;;;;;;348785;28;987;-72
2022/05/17 00:32:15;;;;;;;;;;;;;;;;;;348760;28;979;-72
2022/05/17 00:32:26;;;;;;;;;;;;;;;;;;348850;28;1028;-72
2022/05/17 00:32:36;;;;;;;;;;;;;;;;;;348847;28;928;-72
2022/05/17 00:32:46;;;;;;;;;;;;;;;;;;348837;28;941;-72
2022/05/17 00:32:56;;;;;;;;;;;;;;;;;;348783;28;849;-72
2022/05/17 00:33:07;;;;;;;;;;;;;;;;;;348689;28;1910;-72
2022/05/17 00:33:17;;;;;;;;;;;;;;;;;;348804;28;822;-72
2022/05/17 00:33:27;;;;;;;;;;;;;;;;;;348864;28;960;-72
2022/05/17 00:33:38;;;;;;;;;;;;;;;;;;348826;28;865;-72
2022/05/17 00:33:48;;;;;;;;;;;;;;;;;;348803;28;1300;-72
2022/05/17 00:33:59;;;;;;;;;;;;;;;;;;348728;28;981;-72
2022/05/17 00:34:09;;;;;;;;;;;;;;;;;;348789;28;939;-72
2022/05/17 00:34:20;;;;;;;;;;;;;;;;;;348828;28;846;-72
2022/05/17 00:34:31;;;;;;;;;;;;;;;;;;348823;28;869;-72
2022/05/17 00:34:41;;;;;;;;;;;;;;;;;;348861;28;889;-72
2022/05/17 00:34:51;;;;;;;;;;;;;;;;;;348813;28;798;-72
2022/05/17 00:35:01;;;;;;;;;;;;;;;;;;348637;28;1744;-72
2022/05/17 00:35:12;;;;;;;;;;;;;;;;;;349336;28;1427;-72
2022/05/17 00:35:22;;;;;;;;;;;;;;;;;;350188;28;976;-72
2022/05/17 00:35:32;;;;;;;;;;;;;;;;;;350143;28;1037;-72
2022/05/17 00:35:45;;;;;;;;;;;;;;;;;;350116;28;976;-72
2022/05/17 00:35:55;;;;;;;;;;;;;;;;;;350206;28;810;-72
2022/05/17 00:36:06;;;;;;;;;;;;;;;;;;350183;28;968;-72
2022/05/17 00:36:16;;;;;;;;;;;;;;;;;;350180;28;924;-72
2022/05/17 00:36:26;;;;;;;;;;;;;;;;;;350233;28;833;-72
2022/05/17 00:36:37;;;;;;;;;;;;;;;;;;350138;28;920;-72
2022/05/17 00:36:47;;;;;;;;;;;;;;;;;;350222;28;908;-72
2022/05/17 00:36:58;;;;;;;;;;;;;;;;;;350183;28;992;-72
2022/05/17 00:37:09;;;;;;;;;;;;;;;;;;350152;28;912;-72
2022/05/17 00:37:20;;;;;;;;;;;;;;;;;;350179;28;901;-72
2022/05/17 00:37:30;;;;;;;;;;;;;;;;;;350146;28;1039;-72
2022/05/17 00:37:40;;;;;;;;;;;;;;;;;;350183;28;909;-72
2022/05/17 00:37:50;;;;;;;;;;;;;;;;;;350156;28;1032;-72
2022/05/17 00:38:00;;;;;;;;;;;;;;;;;;350154;28;889;-72
2022/05/17 00:38:12;;;;;;;;;;;;;;;;;;350170;28;908;-72
2022/05/17 00:38:22;;;;;;;;;;;;;;;;;;350207;28;925;-72
2022/05/17 00:38:33;;;;;;;;;;;;;;;;;;350182;28;786;-72
2022/05/17 00:38:43;;;;;;;;;;;;;;;;;;350121;28;967;-72
2022/05/17 00:38:53;;;;;;;;;;;;;;;;;;350214;28;794;-72
2022/05/17 00:39:04;;;;;;;;;;;;;;;;;;350192;28;912;-72
2022/05/17 00:39:14;;;;;;;;;;;;;;;;;;350142;28;936;-72
2022/05/17 00:39:24;;;;;;;;;;;;;;;;;;350143;28;798;-72
2022/05/17 00:39:35;;;;;;;;;;;;;;;;;;350202;28;838;-72
2022/05/17 00:39:45;;;;;;;;;;;;;;;;;;350171;28;968;-72
2022/05/17 00:39:55;;;;;;;;;;;;;;;;;;350215;28;861;-72
2022/05/17 00:40:06;;;;;;;;;;;;;;;;;;350107;28;1040;-72
2022/05/17 00:40:17;;;;;;;;;;;;;;;;;;350095;28;928;-72
2022/05/17 00:40:27;;;;;;;;;;;;;;;;;;350203;28;999;-72
2022/05/17 00:40:37;;;;;;;;;;;;;;;;;;350190;28;929;-72
2022/05/17 00:40:48;;;;;;;;;;;;;;;;;;350164;28;971;-72
2022/05/17 00:40:58;;;;;;;;;;;;;;;;;;350177;28;920;-72
2022/05/17 00:41:08;;;;;;;;;;;;;;;;;;350201;28;842;-72
2022/05/17 00:41:18;;;;;;;;;;;;;;;;;;350127;28;868;-72
2022/05/17 00:41:29;;;;;;;;;;;;;;;;;;350090;28;908;-72
2022/05/17 00:41:39;;;;;;;;;;;;;;;;;;350211;28;853;-72
2022/05/17 00:41:49;;;;;;;;;;;;;;;;;;350178;28;912;-72
2022/05/17 00:42:00;;;;;;;;;;;;;;;;;;350201;28;790;-72
2022/05/17 00:42:10;;;;;;;;;;;;;;;;;;350149;28;909;-72
2022/05/17 00:42:21;;;;;;;;;;;;;;;;;;350089;28;1055;-72
2022/05/17 00:42:31;;;;;;;;;;;;;;;;;;350246;28;802;-72
2022/05/17 00:42:41;;;;;;;;;;;;;;;;;;350189;28;976;-72
2022/05/17 00:42:52;;;;;;;;;;;;;;;;;;350152;28;933;-72
2022/05/17 00:43:02;;;;;;;;;;;;;;;;;;350152;28;1217;-72
2022/05/17 00:43:22;;;;;;;;;;;;;;;;;;350195;28;999;-72
2022/05/17 00:44:43;;;;;;;;;;;;;;;;;;350125;28;873;-72
2022/05/17 00:44:53;;;;;;;;;;;;;;;;;;350161;28;1000;-72
2022/05/17 00:45:04;;;;;;;;;;;;;;;;;;350134;28;905;-72
2022/05/17 00:45:14;;;;;;;;;;;;;;;;;;350214;28;806;-72
2022/05/17 00:45:25;;;;;;;;;;;;;;;;;;350147;28;964;-72
2022/05/17 00:45:39;;;;;;;;;;;;;;;;;;350140;28;829;-72
2022/05/17 00:45:50;;;;;;;;;;;;;;;;;;350138;28;917;-72
2022/05/17 00:46:01;;;;;;;;;;;;;;;;;;350192;28;865;-72
2022/05/17 00:46:12;;;;;;;;;;;;;;;;;;350201;28;964;-72
2022/05/17 00:46:30;;;;;;;;;;;;;;;;;;350146;28;1008;-72
2022/05/17 00:46:58;;;;;;;;;;;;;;;;;;350169;28;940;-72
2022/05/17 00:47:21;;;;;;;;;;;;;;;;;;350132;28;898;-72
2022/05/17 00:47:36;;;;;;;;;;;;;;;;;;350099;28;1012;-72
2022/05/17 00:47:53;;;;;;;;;;;;;;;;;;350152;28;806;-72
2022/05/17 00:48:08;;;;;;;;;;;;;;;;;;350161;28;992;-72
2022/05/17 00:48:19;;;;;;;;;;;;;;;;;;350105;28;865;-72
2022/05/17 00:48:30;;;;;;;;;;;;;;;;;;350160;28;940;-72
2022/05/17 00:48:40;;;;;;;;;;;;;;;;;;350199;28;925;-72
2022/05/17 00:48:50;;;;;;;;;;;;;;;;;;350114;28;901;-72
2022/05/17 00:49:01;;;;;;;;;;;;;;;;;;350217;28;920;-72
2022/05/17 00:49:12;;;;;;;;;;;;;;;;;;350181;28;897;-72
2022/05/17 00:49:28;;;;;;;;;;;;;;;;;;350127;28;905;-72
2022/05/17 00:49:40;;;;;;;;;;;;;;;;;;350151;28;964;-72
2022/05/17 00:50:06;;;;;;;;;;;;;;;;;;350064;28;932;-73
2022/05/17 00:50:19;;;;;;;;;;;;;;;;;;350141;28;1063;-72
2022/05/17 00:50:35;;;;;;;;;;;;;;;;;;350097;28;892;-72
2022/05/17 00:50:47;;;;;;;;;;;;;;;;;;350189;28;810;-72
2022/05/17 00:50:57;;;;;;;;;;;;;;;;;;349954;28;1030;-72
2022/05/17 00:51:08;;;;;;;;;;;;;;;;;;350197;28;980;-72
2022/05/17 00:51:19;;;;;;;;;;;;;;;;;;350197;28;858;-72
2022/05/17 00:51:30;;;;;;;;;;;;;;;;;;350133;28;917;-72
2022/05/17 00:51:42;;;;;;;;;;;;;;;;;;350180;28;921;-72
2022/05/17 00:51:53;;;;;;;;;;;;;;;;;;350182;28;940;-72
2022/05/17 00:52:05;;;;;;;;;;;;;;;;;;350113;28;1017;-72
2022/05/17 00:52:17;;;;;;;;;;;;;;;;;;350205;28;920;-72
2022/05/17 00:52:28;;;;;;;;;;;;;;;;;;349930;28;1511;-72
2022/05/17 00:52:50;;;;;;;;;;;;;;;;;;350089;28;1578;-72
2022/05/17 00:53:04;;;;;;;;;;;;;;;;;;350133;28;979;-72
2022/05/17 00:53:23;;;;;;;;;;;;;;;;;;350168;28;916;-72
2022/05/17 00:53:34;;;;;;;;;;;;;;;;;;350058;28;1043;-72
2022/05/17 00:53:45;;;;;;;;;;;;;;;;;;350208;28;857;-72
2022/05/17 00:54:06;;;;;;;;;;;;;;;;;;350124;28;924;-72
2022/05/17 00:54:17;;;;;;;;;;;;;;;;;;350200;28;869;-72
2022/05/17 00:54:28;;;;;;;;;;;;;;;;;;349949;28;1547;-72
2022/05/17 00:54:40;;;;;;;;;;;;;;;;;;350161;28;1000;-72
2022/05/17 00:54:51;;;;;;;;;;;;;;;;;;350175;28;925;-72
2022/05/17 00:55:04;;;;;;;;;;;;;;;;;;350124;28;1057;-72
2022/05/17 00:55:16;;;;;;;;;;;;;;;;;;350153;28;750;-72
2022/05/17 00:55:53;;;;;;;;;;;;;;;;;;350138;28;1070;-72
2022/05/17 00:56:08;;;;;;;;;;;;;;;;;;346891;28;1175;-72
2022/05/17 00:56:22;;;;;;;;;;;;;;;;;;350183;28;786;-72
2022/05/17 00:56:34;;;;;;;;;;;;;;;;;;350157;28;1003;-72
2022/05/17 00:56:53;;;;;;;;;;;;;;;;;;350115;28;886;-72
2022/05/17 00:57:22;;;;;;;;;;;;;;;;;;350180;28;909;-72
2022/05/17 00:57:32;;;;;;;;;;;;;;;;;;350090;28;933;-72
2022/05/17 00:58:01;;;;;;;;;;;;;;;;;;350117;28;924;-72
2022/05/17 00:58:27;;;;;;;;;;;;;;;;;;350091;28;921;-72
2022/05/17 00:58:43;;;;;;;;;;;;;;;;;;350164;28;916;-72
2022/05/17 00:58:58;;;;;;;;;;;;;;;;;;350171;28;790;-72
2022/05/17 00:59:09;;;;;;;;;;;;;;;;;;350093;28;1327;-72
2022/05/17 00:59:20;;;;;;;;;;;;;;;;;;350182;28;975;-72
2022/05/17 00:59:30;;;;;;;;;;;;;;;;;;350131;28;893;-72
2022/05/17 00:59:41;;;;;;;;;;;;;;;;;;350180;28;984;-72
2022/05/17 00:59:52;;;;;;;;;;;;;;;;;;350169;28;975;-72
2022/05/17 01:00:04;;;;;;;;;;;;;;;;;;350143;28;882;-72
2022/05/17 01:00:16;;;;;;;;;;;;;;;;;;350100;28;980;-72
2022/05/17 01:00:28;;;;;;;;;;;;;;;;;;350196;28;873;-72
2022/05/17 01:00:47;;;;;;;;;;;;;;;;;;350023;28;1419;-72
2022/05/17 01:01:02;;;;;;;;;;;;;;;;;;350139;28;968;-72
2022/05/17 01:01:15;;;;;;;;;;;;;;;;;;350107;28;896;-72
2022/05/17 01:01:28;;;;;;;;;;;;;;;;;;350165;28;938;-72
2022/05/17 01:01:38;;;;;;;;;;;;;;;;;;350080;28;1150;-72
2022/05/17 01:01:50;;;;;;;;;;;;;;;;;;350126;28;1066;-72
2022/05/17 01:02:00;;;;;;;;;;;;;;;;;;350177;28;995;-72
2022/05/17 01:02:11;;;;;;;;;;;;;;;;;;350033;28;956;-72
2022/05/17 01:02:22;;;;;;;;;;;;;;;;;;350180;28;1059;-72
2022/05/17 01:02:32;;;;;;;;;;;;;;;;;;350152;28;913;-72
2022/05/17 01:02:50;;;;;;;;;;;;;;;;;;350182;28;915;-72
2022/05/17 01:03:02;;;;;;;;;;;;;;;;;;350199;28;956;-72
2022/05/17 01:03:15;;;;;;;;;;;;;;;;;;350096;28;979;-73
2022/05/17 01:03:25;;;;;;;;;;;;;;;;;;350113;28;988;-72
2022/05/17 01:03:39;;;;;;;;;;;;;;;;;;350159;28;912;-72
2022/05/17 01:03:50;;;;;;;;;;;;;;;;;;350103;28;905;-72
2022/05/17 01:04:03;;;;;;;;;;;;;;;;;;350152;28;888;-72
2022/05/17 01:04:16;;;;;;;;;;;;;;;;;;350145;28;976;-72
2022/05/17 01:04:27;;;;;;;;;;;;;;;;;;350100;28;921;-72
2022/05/17 01:04:38;;;;;;;;;;;;;;;;;;350139;28;897;-72
2022/05/17 01:04:48;;;;;;;;;;;;;;;;;;350142;28;794;-72
2022/05/17 01:05:00;;;;;;;;;;;;;;;;;;350141;28;865;-72
2022/05/17 01:05:10;;;;;;;;;;;;;;;;;;349159;28;1701;-72
2022/05/17 01:05:22;;;;;;;;;;;;;;;;;;350162;28;849;-72
2022/05/17 01:05:34;;;;;;;;;;;;;;;;;;350109;28;952;-72
2022/05/17 01:05:47;;;;;;;;;;;;;;;;;;350153;28;783;-72
2022/05/17 01:05:57;;;;;;;;;;;;;;;;;;350103;28;988;-72
2022/05/17 01:06:08;;;;;;;;;;;;;;;;;;350150;28;1016;-72
2022/05/17 01:06:18;;;;;;;;;;;;;;;;;;350089;28;1049;-72
2022/05/17 01:06:47;;;;;;;;;;;;;;;;;;350102;28;782;-72
2022/05/17 01:07:01;;;;;;;;;;;;;;;;;;350155;28;980;-72
2022/05/17 01:07:17;;;;;;;;;;;;;;;;;;350113;28;1004;-72
2022/05/17 01:07:31;;;;;;;;;;;;;;;;;;350168;28;786;-72
2022/05/17 01:07:42;;;;;;;;;;;;;;;;;;350169;28;879;-72
2022/05/17 01:07:54;;;;;;;;;;;;;;;;;;350132;28;1026;-72
2022/05/17 01:08:06;;;;;;;;;;;;;;;;;;350172;28;991;-72
2022/05/17 01:08:17;;;;;;;;;;;;;;;;;;350078;28;811;-72
2022/05/17 01:08:28;;;;;;;;;;;;;;;;;;350076;28;1011;-72
2022/05/17 01:08:39;;;;;;;;;;;;;;;;;;350149;28;913;-72
2022/05/17 01:08:49;;;;;;;;;;;;;;;;;;350134;28;928;-72
2022/05/17 01:08:59;;;;;;;;;;;;;;;;;;350125;28;1016;-72
2022/05/17 01:09:10;;;;;;;;;;;;;;;;;;350168;28;924;-72
2022/05/17 01:09:21;;;;;;;;;;;;;;;;;;350112;28;975;-72
2022/05/17 01:09:32;;;;;;;;;;;;;;;;;;350147;28;995;-72
2022/05/17 01:09:42;;;;;;;;;;;;;;;;;;350131;28;913;-72
2022/05/17 01:09:52;;;;;;;;;;;;;;;;;;350109;28;841;-72
2022/05/17 01:10:03;;;;;;;;;;;;;;;;;;350102;28;790;-72
2022/05/17 01:10:13;;;;;;;;;;;;;;;;;;350135;28;956;-72
2022/05/17 01:10:27;;;;;;;;;;;;;;;;;;350127;28;841;-72
2022/05/17 01:10:38;;;;;;;;;;;;;;;;;;350146;28;904;-72
2022/05/17 01:10:48;;;;;;;;;;;;;;;;;;350174;28;933;-72
2022/05/17 01:10:59;;;;;;;;;;;;;;;;;;350111;28;796;-72
2022/05/17 01:11:09;;;;;;;;;;;;;;;;;;350101;28;996;-72
2022/05/17 01:11:19;;;;;;;;;;;;;;;;;;350129;28;991;-72
2022/05/17 01:11:30;;;;;;;;;;;;;;;;;;350183;28;975;-72
2022/05/17 01:11:41;;;;;;;;;;;;;;;;;;350185;28;845;-72
2022/05/17 01:11:51;;;;;;;;;;;;;;;;;;350105;28;932;-72
2022/05/17 01:12:01;;;;;;;;;;;;;;;;;;350119;28;1187;-72
2022/05/17 01:12:12;;;;;;;;;;;;;;;;;;350148;28;979;-72
2022/05/17 01:12:22;;;;;;;;;;;;;;;;;;350195;28;822;-72
2022/05/17 01:12:34;;;;;;;;;;;;;;;;;;350061;28;790;-72
2022/05/17 01:14:57;;;;;;;;;;;;;;;;;;350107;28;999;-72
2022/05/17 01:15:00;;;;;;;;;;;;;;;;;;350043;28;1053;-72
2022/05/17 01:15:11;;;;;;;;;;;;;;;;;;350082;28;1047;-72
2022/05/17 01:15:22;;;;;;;;;;;;;;;;;;349223;28;1747;-71
2022/05/17 01:15:34;;;;;;;;;;;;;;;;;;349988;28;1301;-72
2022/05/17 01:15:45;;;;;;;;;;;;;;;;;;350158;28;983;-72
2022/05/17 01:15:55;;;;;;;;;;;;;;;;;;350042;28;992;-72
2022/05/17 01:16:06;;;;;;;;;;;;;;;;;;350150;28;999;-72
2022/05/17 01:16:16;;;;;;;;;;;;;;;;;;350171;28;793;-72
2022/05/17 01:16:27;;;;;;;;;;;;;;;;;;350149;28;880;-72
2022/05/17 01:16:37;;;;;;;;;;;;;;;;;;350143;28;936;-72
2022/05/17 01:16:47;;;;;;;;;;;;;;;;;;350003;28;905;-72
2022/05/17 01:16:58;;;;;;;;;;;;;;;;;;350114;28;1115;-72
2022/05/17 01:17:09;;;;;;;;;;;;;;;;;;350172;28;797;-72
2022/05/17 01:17:20;;;;;;;;;;;;;;;;;;350146;28;932;-72
2022/05/17 01:17:34;;;;;;;;;;;;;;;;;;350142;28;1810;-72
2022/05/17 01:17:45;;;;;;;;;;;;;;;;;;350120;28;870;-72
2022/05/17 01:17:55;;;;;;;;;;;;;;;;;;350212;28;999;-72
2022/05/17 01:18:06;;;;;;;;;;;;;;;;;;350091;28;1003;-72
2022/05/17 01:18:16;;;;;;;;;;;;;;;;;;350155;28;917;-72
2022/05/17 01:18:29;;;;;;;;;;;;;;;;;;350192;28;817;-72
2022/05/17 01:18:40;;;;;;;;;;;;;;;;;;350036;28;809;-73
2022/05/17 01:18:51;;;;;;;;;;;;;;;;;;350074;28;892;-72
2022/05/17 01:19:02;;;;;;;;;;;;;;;;;;350141;28;852;-72
2022/05/17 01:19:13;;;;;;;;;;;;;;;;;;350169;28;912;-72
2022/05/17 01:19:23;;;;;;;;;;;;;;;;;;350209;28;935;-72
2022/05/17 01:19:33;;;;;;;;;;;;;;;;;;350156;28;789;-73
2022/05/17 01:19:44;;;;;;;;;;;;;;;;;;350124;28;889;-72
2022/05/17 01:19:55;;;;;;;;;;;;;;;;;;350127;28;892;-72
2022/05/17 01:20:10;;;;;;;;;;;;;;;;;;350137;28;912;-72
2022/05/17 01:20:20;;;;;;;;;;;;;;;;;;350117;28;802;-72
2022/05/17 01:20:32;;;;;;;;;;;;;;;;;;350112;28;932;-72
2022/05/17 01:20:42;;;;;;;;;;;;;;;;;;350158;28;932;-72
2022/05/17 01:20:56;;;;;;;;;;;;;;;;;;350117;28;928;-72
2022/05/17 01:21:07;;;;;;;;;;;;;;;;;;350056;28;964;-72
2022/05/17 01:21:17;;;;;;;;;;;;;;;;;;350034;28;1007;-72
2022/05/17 01:21:27;;;;;;;;;;;;;;;;;;350156;28;983;-72
2022/05/17 01:21:37;;;;;;;;;;;;;;;;;;350132;28;857;-72
2022/05/17 01:21:48;;;;;;;;;;;;;;;;;;350080;28;994;-72
2022/05/17 01:21:58;;;;;;;;;;;;;;;;;;350141;28;913;-72
2022/05/17 01:22:08;;;;;;;;;;;;;;;;;;350109;28;979;-72
2022/05/17 01:22:19;;;;;;;;;;;;;;;;;;350110;28;909;-71
2022/05/17 01:22:30;;;;;;;;;;;;;;;;;;350004;28;1554;-72
2022/05/17 01:22:40;;;;;;;;;;;;;;;;;;348710;28;920;-72
2022/05/17 01:22:50;;;;;;;;;;;;;;;;;;348669;28;1008;-72
2022/05/17 01:23:00;;;;;;;;;;;;;;;;;;348730;28;913;-72
2022/05/17 01:23:11;;;;;;;;;;;;;;;;;;348713;28;980;-72
2022/05/17 01:23:21;;;;;;;;;;;;;;;;;;348674;28;1044;-72
2022/05/17 01:23:31;;;;;;;;;;;;;;;;;;348783;28;936;-72
2022/05/17 01:23:41;;;;;;;;;;;;;;;;;;348759;28;916;-72
2022/05/17 01:23:52;;;;;;;;;;;;;;;;;;348760;28;849;-72
2022/05/17 01:24:02;;;;;;;;;;;;;;;;;;348777;28;972;-72
2022/05/17 01:24:13;;;;;;;;;;;;;;;;;;348715;28;1076;-72
2022/05/17 01:24:24;;;;;;;;;;;;;;;;;;348717;28;920;-72
2022/05/17 01:24:35;;;;;;;;;;;;;;;;;;348705;28;1000;-72